createdAt,value
2019-05-23T00:01:09.957Z,10.23
2019-05-23T00:03:51.470Z,10.24
2019-05-23T00:06:21.815Z,10.21
2019-05-23T00:08:50.716Z,10.27
2019-05-23T00:11:40.367Z,10.13
2019-05-23T00:14:22.420Z,10.15
2019-05-23T00:16:52.705Z,10.15
2019-05-23T00:19:21.764Z,10.07
2019-05-23T00:21:51.818Z,10.06
2019-05-23T00:24:21.125Z,10.06
2019-05-23T00:26:51.239Z,10.01
2019-05-23T00:29:21.360Z,10.00
2019-05-23T00:31:57.394Z,9.98
2019-05-23T00:34:26.544Z,9.91
2019-05-23T00:36:55.615Z,9.89
2019-05-23T00:39:25.153Z,9.88
2019-05-23T00:41:55.136Z,9.94
2019-05-23T00:44:24.957Z,9.95
2019-05-23T00:46:54.045Z,9.93
2019-05-23T00:49:22.755Z,9.99
2019-05-23T00:51:51.448Z,9.96
2019-05-23T00:54:21.328Z,9.89
2019-05-23T00:56:50.241Z,9.85
2019-05-23T00:59:26.991Z,9.85
2019-05-23T01:01:50.590Z,9.83
2019-05-23T01:04:20.889Z,9.76
2019-05-23T01:06:49.656Z,9.77
2019-05-23T01:09:19.475Z,9.77
2019-05-23T01:11:49.303Z,9.78
2019-05-23T01:14:18.812Z,9.71
2019-05-23T01:16:48.079Z,9.72
2019-05-23T01:19:17.244Z,9.69
2019-05-23T01:22:01.886Z,9.71
2019-05-23T01:24:36.731Z,9.61
2019-05-23T01:27:06.033Z,9.51
2019-05-23T01:29:43.104Z,9.49
2019-05-23T01:32:30.377Z,9.54
2019-05-23T01:34:59.748Z,9.55
2019-05-23T01:37:28.699Z,9.47
2019-05-23T01:39:57.406Z,9.47
2019-05-23T01:42:27.098Z,9.47
2019-05-23T01:44:57.434Z,9.44
2019-05-23T01:47:27.464Z,9.46
2019-05-23T01:49:56.739Z,9.29
2019-05-23T01:52:25.357Z,9.01
2019-05-23T01:54:55.142Z,8.99
2019-05-23T01:57:23.857Z,9.07
2019-05-23T02:00:08.086Z,9.08
2019-05-23T02:02:24.479Z,8.93
2019-05-23T02:04:53.475Z,8.92
2019-05-23T02:07:22.476Z,8.92
2019-05-23T02:09:52.499Z,8.80
2019-05-23T02:12:21.505Z,8.80
2019-05-23T02:14:52.422Z,8.70
2019-05-23T02:17:22.709Z,8.63
2019-05-23T02:19:51.895Z,8.58
2019-05-23T02:22:21.547Z,8.58
2019-05-23T02:24:51.465Z,8.44
2019-05-23T02:27:21.276Z,8.35
2019-05-23T02:29:50.377Z,8.29
2019-05-23T02:32:21.009Z,8.34
2019-05-23T02:34:50.821Z,8.32
2019-05-23T02:37:37.835Z,8.16
2019-05-23T02:40:17.369Z,8.12
2019-05-23T02:42:51.190Z,8.06
2019-05-23T02:45:24.016Z,8.05
2019-05-23T02:47:54.783Z,8.03
2019-05-23T02:50:29.622Z,8.06
2019-05-23T02:53:00.262Z,7.96
2019-05-23T02:55:37.198Z,7.96
2019-05-23T02:58:22.048Z,7.93
2019-05-23T03:00:58.858Z,7.99
2019-05-23T03:03:32.613Z,7.98
2019-05-23T03:06:02.213Z,7.89
2019-05-23T03:08:32.356Z,7.96
2019-05-23T03:11:19.854Z,7.97
2019-05-23T03:13:49.865Z,7.96
2019-05-23T03:16:20.109Z,8.03
2019-05-23T03:18:55.736Z,7.95
2019-05-23T03:21:24.991Z,7.98
2019-05-23T03:23:53.682Z,8.06
2019-05-23T03:27:02.993Z,8.00
2019-05-23T03:29:33.699Z,8.07
2019-05-23T03:32:14.799Z,8.17
2019-05-23T03:34:45.922Z,8.17
2019-05-23T03:37:16.165Z,8.19
2019-05-23T03:39:45.445Z,8.28
2019-05-23T03:42:15.197Z,8.31
2019-05-23T03:44:45.157Z,8.26
2019-05-23T03:47:17.141Z,8.26
2019-05-23T03:49:46.030Z,8.29
2019-05-23T03:52:15.327Z,8.31
2019-05-23T03:54:46.169Z,8.24
2019-05-23T03:57:16.145Z,8.27
2019-05-23T03:59:46.421Z,8.28
2019-05-23T04:02:16.797Z,8.35
2019-05-23T04:04:45.779Z,8.43
2019-05-23T04:07:16.235Z,8.51
2019-05-23T04:09:45.933Z,8.64
2019-05-23T04:12:15.275Z,8.75
2019-05-23T04:14:45.710Z,8.85
2019-05-23T04:17:15.237Z,8.92
2019-05-23T04:19:44.594Z,8.93
2019-05-23T04:22:14.005Z,9.08
2019-05-23T04:24:42.655Z,9.23
2019-05-23T04:27:12.090Z,9.25
2019-05-23T04:29:40.796Z,9.46
2019-05-23T04:32:09.679Z,9.60
2019-05-23T04:34:39.181Z,9.91
2019-05-23T04:37:08.306Z,9.91
2019-05-23T04:39:37.264Z,10.06
2019-05-23T04:42:07.030Z,10.16
2019-05-23T04:44:36.787Z,10.18
2019-05-23T04:47:06.499Z,10.39
2019-05-23T04:49:35.499Z,10.35
2019-05-23T04:52:04.597Z,10.40
2019-05-23T04:54:33.997Z,10.50
2019-05-23T04:57:03.807Z,10.58
2019-05-23T04:59:33.576Z,10.69
2019-05-23T05:02:02.211Z,10.78
2019-05-23T05:04:30.839Z,10.85
2019-05-23T05:06:59.532Z,10.93
2019-05-23T05:09:32.109Z,10.90
2019-05-23T05:12:01.201Z,10.95
2019-05-23T05:14:31.377Z,11.05
2019-05-23T05:17:00.498Z,10.96
2019-05-23T05:19:29.666Z,10.85
2019-05-23T05:21:58.472Z,10.77
2019-05-23T05:24:27.597Z,10.79
2019-05-23T05:26:56.554Z,10.78
2019-05-23T05:29:25.534Z,10.75
2019-05-23T05:31:54.969Z,10.79
2019-05-23T05:34:24.244Z,10.74
2019-05-23T05:36:52.984Z,10.77
2019-05-23T05:39:23.662Z,10.74
2019-05-23T05:41:53.881Z,10.85
2019-05-23T05:44:22.626Z,11.01
2019-05-23T05:46:51.411Z,11.09
2019-05-23T05:49:21.625Z,11.18
2019-05-23T05:51:50.667Z,11.25
2019-05-23T05:54:19.982Z,11.32
2019-05-23T05:56:48.881Z,11.24
2019-05-23T05:59:17.868Z,11.26
2019-05-23T06:01:47.292Z,11.32
2019-05-23T06:04:16.264Z,11.29
2019-05-23T06:06:52.637Z,11.17
2019-05-23T06:09:27.669Z,11.22
2019-05-23T06:11:56.876Z,11.28
2019-05-23T06:14:25.890Z,11.41
2019-05-23T06:16:56.457Z,11.41
2019-05-23T06:19:25.309Z,11.40
2019-05-23T06:21:54.585Z,11.50
2019-05-23T06:24:42.009Z,11.54
2019-05-23T06:26:54.476Z,11.50
2019-05-23T06:29:24.077Z,11.33
2019-05-23T06:31:54.058Z,11.43
2019-05-23T06:34:23.581Z,11.55
2019-05-23T06:36:53.132Z,11.69
2019-05-23T06:39:22.221Z,11.77
2019-05-23T06:41:51.136Z,11.83
2019-05-23T06:44:19.856Z,11.75
2019-05-23T06:46:48.916Z,11.95
2019-05-23T06:49:17.943Z,11.95
2019-05-23T06:51:46.904Z,11.78
2019-05-23T06:54:16.316Z,11.85
2019-05-23T06:56:45.398Z,11.70
2019-05-23T06:59:14.916Z,11.83
2019-05-23T07:01:43.624Z,11.71
2019-05-23T07:04:13.107Z,11.74
2019-05-23T07:06:41.735Z,11.86
2019-05-23T07:09:14.431Z,12.01
2019-05-23T07:11:43.568Z,12.04
2019-05-23T07:14:12.967Z,12.03
2019-05-23T07:16:41.829Z,12.08
2019-05-23T07:19:11.095Z,11.96
2019-05-23T07:21:40.113Z,12.19
2019-05-23T07:24:09.168Z,12.12
2019-05-23T07:26:37.795Z,12.16
2019-05-23T07:29:09.010Z,12.16
2019-05-23T07:31:38.382Z,12.34
2019-05-23T07:34:07.127Z,12.45
2019-05-23T07:36:36.696Z,12.44
2019-05-23T07:39:11.302Z,12.49
2019-05-23T07:41:39.069Z,12.46
2019-05-23T07:44:08.916Z,12.60
2019-05-23T07:46:38.899Z,12.84
2019-05-23T07:49:07.896Z,12.96
2019-05-23T07:51:37.399Z,12.92
2019-05-23T07:54:25.265Z,13.08
2019-05-23T07:56:55.293Z,13.06
2019-05-23T07:59:24.265Z,13.03
2019-05-23T08:02:04.270Z,13.12
2019-05-23T08:04:33.600Z,13.37
2019-05-23T08:07:02.321Z,13.58
2019-05-23T08:09:31.697Z,13.68
2019-05-23T08:12:00.337Z,13.63
2019-05-23T08:14:29.365Z,13.63
2019-05-23T08:16:58.019Z,13.73
2019-05-23T08:19:26.997Z,13.80
2019-05-23T08:21:56.043Z,13.90
2019-05-23T08:24:25.044Z,13.80
2019-05-23T08:26:55.786Z,13.82
2019-05-23T08:29:26.436Z,13.81
2019-05-23T08:31:55.410Z,14.00
2019-05-23T08:34:39.904Z,14.04
2019-05-23T08:36:55.567Z,13.88
2019-05-23T08:39:25.327Z,14.03
2019-05-23T08:41:54.046Z,14.14
2019-05-23T08:44:23.072Z,14.24
2019-05-23T08:46:52.233Z,14.32
2019-05-23T08:49:22.251Z,14.30
2019-05-23T08:51:51.652Z,14.50
2019-05-23T08:54:20.325Z,14.57
2019-05-23T08:56:49.215Z,14.46
2019-05-23T08:59:18.942Z,14.32
2019-05-23T09:01:48.240Z,14.72
2019-05-23T09:04:17.912Z,14.88
2019-05-23T09:06:47.304Z,15.05
2019-05-23T09:09:28.981Z,15.14
2019-05-23T09:11:46.774Z,15.07
2019-05-23T09:14:15.631Z,14.98
2019-05-23T09:16:44.331Z,15.07
2019-05-23T09:19:13.225Z,15.26
2019-05-23T09:21:41.863Z,15.31
2019-05-23T09:24:11.504Z,15.56
2019-05-23T09:26:40.214Z,15.59
2019-05-23T09:29:09.215Z,15.58
2019-05-23T09:31:38.292Z,15.80
2019-05-23T09:34:07.143Z,15.79
2019-05-23T09:36:36.439Z,15.82
2019-05-23T09:39:08.550Z,16.10
2019-05-23T09:41:38.188Z,16.13
2019-05-23T09:44:06.868Z,16.05
2019-05-23T09:46:36.170Z,15.96
2019-05-23T09:49:04.958Z,16.19
2019-05-23T09:51:33.951Z,16.22
2019-05-23T09:54:03.253Z,16.31
2019-05-23T09:56:32.145Z,16.57
2019-05-23T09:59:01.138Z,16.55
2019-05-23T10:01:30.537Z,16.76
2019-05-23T10:03:59.442Z,17.19
2019-05-23T10:06:28.425Z,17.01
2019-05-23T10:08:57.297Z,17.42
2019-05-23T10:11:26.518Z,17.57
2019-05-23T10:13:56.026Z,17.20
2019-05-23T10:16:24.722Z,17.43
2019-05-23T10:18:54.010Z,17.27
2019-05-23T10:21:22.999Z,17.69
2019-05-23T10:23:51.720Z,17.73
2019-05-23T10:26:20.696Z,18.08
2019-05-23T10:28:49.684Z,18.40
2019-05-23T10:31:18.470Z,18.51
2019-05-23T10:33:47.666Z,18.60
2019-05-23T10:36:16.357Z,18.39
2019-05-23T10:38:44.985Z,19.09
2019-05-23T10:41:14.056Z,18.94
2019-05-23T10:43:43.252Z,19.10
2019-05-23T10:46:12.618Z,19.54
2019-05-23T10:48:42.151Z,19.27
2019-05-23T10:51:11.377Z,19.56
2019-05-23T10:53:40.332Z,19.90
2019-05-23T10:56:09.738Z,19.95
2019-05-23T10:58:38.773Z,19.52
2019-05-23T11:01:07.723Z,19.85
2019-05-23T11:03:36.630Z,19.78
2019-05-23T11:06:16.337Z,21.11
2019-05-23T11:08:38.184Z,19.41
2019-05-23T11:11:07.340Z,19.90
2019-05-23T11:13:36.277Z,20.09
2019-05-23T11:16:05.000Z,20.31
2019-05-23T11:18:34.280Z,20.72
2019-05-23T11:21:02.955Z,20.87
2019-05-23T11:23:36.229Z,20.36
2019-05-23T11:26:05.423Z,20.55
2019-05-23T11:28:36.492Z,20.46
2019-05-23T11:31:08.241Z,20.94
2019-05-23T11:33:36.910Z,21.14
2019-05-23T11:36:06.568Z,21.07
2019-05-23T11:38:35.420Z,20.14
2019-05-23T11:41:04.296Z,20.89
2019-05-23T11:43:33.540Z,20.62
2019-05-23T11:46:21.427Z,20.79
2019-05-23T11:48:50.773Z,20.27
2019-05-23T11:51:24.535Z,21.06
2019-05-23T11:54:06.905Z,20.90
2019-05-23T11:56:21.096Z,21.32
2019-05-23T11:58:49.734Z,22.31
2019-05-23T12:01:36.305Z,21.29
2019-05-23T12:04:23.438Z,21.31
2019-05-23T12:07:10.504Z,20.93
2019-05-23T12:09:39.851Z,21.42
2019-05-23T12:12:08.746Z,21.44
2019-05-23T12:14:38.522Z,21.34
2019-05-23T12:17:07.263Z,21.35
2019-05-23T12:19:36.049Z,21.09
2019-05-23T12:22:05.126Z,21.51
2019-05-23T12:24:35.617Z,21.45
2019-05-23T12:27:04.244Z,21.78
2019-05-23T12:29:33.540Z,21.74
2019-05-23T12:32:02.322Z,22.15
2019-05-23T12:34:30.943Z,22.04
2019-05-23T12:37:18.571Z,21.70
2019-05-23T12:39:30.344Z,21.27
2019-05-23T12:41:59.236Z,21.94
2019-05-23T12:44:28.325Z,21.60
2019-05-23T12:46:56.952Z,21.45
2019-05-23T12:49:32.051Z,21.81
2019-05-23T12:52:01.137Z,21.77
2019-05-23T12:54:31.370Z,21.45
2019-05-23T12:57:01.275Z,21.53
2019-05-23T12:59:30.374Z,21.12
2019-05-23T13:02:00.527Z,21.65
2019-05-23T13:04:29.487Z,21.53
2019-05-23T13:06:59.079Z,21.62
2019-05-23T13:09:27.943Z,22.43
2019-05-23T13:11:56.653Z,21.81
2019-05-23T13:14:25.606Z,21.74
2019-05-23T13:16:54.892Z,21.83
2019-05-23T13:19:23.598Z,22.00
2019-05-23T13:21:52.557Z,22.43
2019-05-23T13:24:22.258Z,22.19
2019-05-23T13:26:51.349Z,22.54
2019-05-23T13:29:24.089Z,22.96
2019-05-23T13:31:51.386Z,22.72
2019-05-23T13:34:19.999Z,23.05
2019-05-23T13:36:48.946Z,22.98
2019-05-23T13:39:18.037Z,22.45
2019-05-23T13:41:46.757Z,22.96
2019-05-23T13:44:31.929Z,22.92
2019-05-23T13:46:47.091Z,21.71
2019-05-23T13:49:16.823Z,21.28
2019-05-23T13:51:47.125Z,20.76
2019-05-23T13:54:15.841Z,21.66
2019-05-23T13:56:47.817Z,21.87
2019-05-23T13:59:15.437Z,23.03
2019-05-23T14:01:44.183Z,23.00
2019-05-23T14:04:13.754Z,22.39
2019-05-23T14:06:42.729Z,22.75
2019-05-23T14:09:11.446Z,23.28
2019-05-23T14:11:40.428Z,23.47
2019-05-23T14:14:09.432Z,23.17
2019-05-23T14:16:51.377Z,23.05
2019-05-23T14:19:20.295Z,23.19
2019-05-23T14:21:49.183Z,23.31
2019-05-23T14:24:18.175Z,23.08
2019-05-23T14:26:54.541Z,22.88
2019-05-23T14:29:23.434Z,22.78
2019-05-23T14:32:00.627Z,22.47
2019-05-23T14:34:29.645Z,22.72
2019-05-23T14:37:04.199Z,22.10
2019-05-23T14:39:36.206Z,22.27
2019-05-23T14:42:27.217Z,22.38
2019-05-23T14:44:56.311Z,22.20
2019-05-23T14:47:47.526Z,22.17
2019-05-23T14:50:35.433Z,22.58
2019-05-23T14:53:05.212Z,22.55
2019-05-23T14:55:34.272Z,22.10
2019-05-23T14:58:03.844Z,22.36
2019-05-23T15:00:33.119Z,22.00
2019-05-23T15:03:02.052Z,22.00
2019-05-23T15:05:30.962Z,22.36
2019-05-23T15:07:59.950Z,21.94
2019-05-23T15:10:29.251Z,22.45
2019-05-23T15:12:58.279Z,22.18
2019-05-23T15:15:27.417Z,22.82
2019-05-23T15:17:56.120Z,23.57
2019-05-23T15:20:25.131Z,23.42
2019-05-23T15:22:53.750Z,23.40
2019-05-23T15:25:22.809Z,23.22
2019-05-23T15:27:51.514Z,22.91
2019-05-23T15:30:21.088Z,23.13
2019-05-23T15:32:50.209Z,23.51
2019-05-23T15:35:18.946Z,23.62
2019-05-23T15:37:47.875Z,23.51
2019-05-23T15:40:16.649Z,23.11
2019-05-23T15:42:45.667Z,23.26
2019-05-23T15:45:14.347Z,22.75
2019-05-23T15:47:43.057Z,22.91
2019-05-23T15:50:14.801Z,22.91
2019-05-23T15:53:05.359Z,22.84
2019-05-23T15:55:43.399Z,22.71
2019-05-23T15:58:27.969Z,22.28
2019-05-23T16:01:09.650Z,22.45
2019-05-23T16:03:53.853Z,22.19
2019-05-23T16:06:23.893Z,21.54
2019-05-23T16:08:52.928Z,21.48
2019-05-23T16:11:22.006Z,21.50
2019-05-23T16:13:50.930Z,21.64
2019-05-23T16:16:19.585Z,21.76
2019-05-23T16:18:48.892Z,22.32
2019-05-23T16:21:18.938Z,22.61
2019-05-23T16:23:47.634Z,22.52
2019-05-23T16:26:17.017Z,22.88
2019-05-23T16:28:46.398Z,22.80
2019-05-23T16:31:15.115Z,23.12
2019-05-23T16:33:44.387Z,22.19
2019-05-23T16:36:13.379Z,23.14
2019-05-23T16:38:42.679Z,22.93
2019-05-23T16:41:11.911Z,22.26
2019-05-23T16:43:40.759Z,23.50
2019-05-23T16:46:09.661Z,23.57
2019-05-23T16:48:38.557Z,23.17
2019-05-23T16:51:07.862Z,23.17
2019-05-23T16:53:37.087Z,23.34
2019-05-23T16:56:13.818Z,23.14
2019-05-23T16:58:49.431Z,22.64
2019-05-23T17:01:29.225Z,22.56
2019-05-23T17:04:06.954Z,22.73
2019-05-23T17:06:44.731Z,22.29
2019-05-23T17:09:31.602Z,21.88
2019-05-23T17:12:05.798Z,22.21
2019-05-23T17:14:43.446Z,21.89
2019-05-23T17:17:43.073Z,21.59
2019-05-23T17:20:22.810Z,21.34
2019-05-23T17:22:59.083Z,21.19
2019-05-23T17:25:43.745Z,20.71
2019-05-23T17:28:16.020Z,20.65
2019-05-23T17:30:57.335Z,20.80
2019-05-23T17:33:31.021Z,20.55
2019-05-23T17:35:59.650Z,20.88
2019-05-23T17:38:28.548Z,20.38
2019-05-23T17:40:57.837Z,20.41
2019-05-23T17:43:27.148Z,20.13
2019-05-23T17:45:56.068Z,19.99
2019-05-23T17:48:25.789Z,19.95
2019-05-23T17:50:54.663Z,19.91
2019-05-23T17:53:23.866Z,19.91
2019-05-23T17:55:53.206Z,19.99
2019-05-23T17:58:23.363Z,20.01
2019-05-23T18:00:52.388Z,19.94
2019-05-23T18:03:21.307Z,20.01
2019-05-23T18:05:50.101Z,19.69
2019-05-23T18:08:19.877Z,19.58
2019-05-23T18:10:48.620Z,19.63
2019-05-23T18:13:18.407Z,19.36
2019-05-23T18:15:47.146Z,19.33
2019-05-23T18:18:16.292Z,19.26
2019-05-23T18:20:45.770Z,19.26
2019-05-23T18:23:16.308Z,19.17
2019-05-23T18:25:45.320Z,19.22
2019-05-23T18:28:14.690Z,19.03
2019-05-23T18:30:50.254Z,19.09
2019-05-23T18:33:19.593Z,19.07
2019-05-23T18:35:49.192Z,18.99
2019-05-23T18:38:18.266Z,18.80
2019-05-23T18:41:01.503Z,18.94
2019-05-23T18:43:17.775Z,18.95
2019-05-23T18:45:47.578Z,18.84
2019-05-23T18:48:16.235Z,18.88
2019-05-23T18:50:45.565Z,18.88
2019-05-23T18:53:14.781Z,18.92
2019-05-23T18:55:43.796Z,18.95
2019-05-23T18:58:12.622Z,18.72
2019-05-23T19:01:02.639Z,18.77
2019-05-23T19:03:33.223Z,18.81
2019-05-23T19:06:01.932Z,18.53
2019-05-23T19:08:31.505Z,18.42
2019-05-23T19:11:00.986Z,18.48
2019-05-23T19:13:29.807Z,18.40
2019-05-23T19:15:58.780Z,18.59
2019-05-23T19:18:28.013Z,18.54
2019-05-23T19:20:57.905Z,18.57
2019-05-23T19:23:27.060Z,18.41
2019-05-23T19:25:56.168Z,18.26
2019-05-23T19:28:25.644Z,18.06
2019-05-23T19:30:54.815Z,17.92
2019-05-23T19:33:25.392Z,17.85
2019-05-23T19:35:54.896Z,17.84
2019-05-23T19:38:23.959Z,17.74
2019-05-23T19:40:52.613Z,17.58
2019-05-23T19:43:22.419Z,17.42
2019-05-23T19:45:51.892Z,17.30
2019-05-23T19:48:21.810Z,17.07
2019-05-23T19:50:52.034Z,16.98
2019-05-23T19:53:20.973Z,16.91
2019-05-23T19:55:50.181Z,16.84
2019-05-23T19:58:19.385Z,16.78
2019-05-23T20:00:48.147Z,16.72
2019-05-23T20:03:18.343Z,16.63
2019-05-23T20:05:47.792Z,16.57
2019-05-23T20:08:16.731Z,16.47
2019-05-23T20:10:46.344Z,16.40
2019-05-23T20:13:18.443Z,16.35
2019-05-23T20:15:46.302Z,16.28
2019-05-23T20:18:15.378Z,16.28
2019-05-23T20:20:44.361Z,16.25
2019-05-23T20:23:15.811Z,16.25
2019-05-23T20:25:43.992Z,16.23
2019-05-23T20:28:12.613Z,16.17
2019-05-23T20:30:58.875Z,15.97
2019-05-23T20:33:28.796Z,15.88
2019-05-23T20:35:57.623Z,15.76
2019-05-23T20:38:27.287Z,15.72
2019-05-23T20:40:56.997Z,15.70
2019-05-23T20:43:25.820Z,15.63
2019-05-23T20:45:54.796Z,15.59
2019-05-23T20:48:25.965Z,15.54
2019-05-23T20:50:55.238Z,15.52
2019-05-23T20:53:24.446Z,15.49
2019-05-23T20:55:53.825Z,15.37
2019-05-23T20:58:23.241Z,15.29
2019-05-23T21:00:57.220Z,15.21
2019-05-23T21:03:27.395Z,15.16
2019-05-23T21:05:56.661Z,15.10
2019-05-23T21:08:25.593Z,15.01
2019-05-23T21:10:56.462Z,14.98
2019-05-23T21:13:25.087Z,14.97
2019-05-23T21:15:54.080Z,14.89
2019-05-23T21:18:22.783Z,14.82
2019-05-23T21:20:51.491Z,14.79
2019-05-23T21:23:20.111Z,14.74
2019-05-23T21:25:54.606Z,14.68
2019-05-23T21:28:23.542Z,14.63
2019-05-23T21:30:52.181Z,14.64
2019-05-23T21:33:21.033Z,14.57
2019-05-23T21:35:49.735Z,14.53
2019-05-23T21:38:18.430Z,14.49
2019-05-23T21:40:47.203Z,14.49
2019-05-23T21:43:16.259Z,14.54
2019-05-23T21:45:44.978Z,14.52
2019-05-23T21:48:13.986Z,14.47
2019-05-23T21:50:42.850Z,14.46
2019-05-23T21:53:11.550Z,14.42
2019-05-23T21:55:41.757Z,14.37
2019-05-23T21:58:11.642Z,14.29
2019-05-23T22:01:20.525Z,14.26
2019-05-23T22:03:57.791Z,14.17
2019-05-23T22:06:29.159Z,14.11
2019-05-23T22:08:58.764Z,14.05
2019-05-23T22:11:27.764Z,13.99
2019-05-23T22:13:57.143Z,13.88
2019-05-23T22:16:26.280Z,13.81
2019-05-23T22:18:54.993Z,13.77
2019-05-23T22:21:23.921Z,13.70
2019-05-23T22:23:53.324Z,13.63
2019-05-23T22:26:22.216Z,13.62
2019-05-23T22:28:51.372Z,13.53
2019-05-23T22:31:20.936Z,13.46
2019-05-23T22:33:55.546Z,13.47
2019-05-23T22:36:24.536Z,13.40
2019-05-23T22:38:53.428Z,13.34
2019-05-23T22:41:22.729Z,13.33
2019-05-23T22:43:51.625Z,13.28
2019-05-23T22:46:22.253Z,13.20
2019-05-23T22:48:50.947Z,13.17
2019-05-23T22:51:19.935Z,13.13
2019-05-23T22:53:48.824Z,13.09
2019-05-23T22:56:17.820Z,13.06
2019-05-23T22:58:46.709Z,12.98
2019-05-23T23:01:16.099Z,12.98
2019-05-23T23:03:44.780Z,12.94
2019-05-23T23:06:14.916Z,12.89
2019-05-23T23:08:43.922Z,12.85
2019-05-23T23:11:12.611Z,12.82
2019-05-23T23:13:41.252Z,12.79
2019-05-23T23:16:10.284Z,12.78
2019-05-23T23:18:39.889Z,12.76
2019-05-23T23:21:08.984Z,12.76
2019-05-23T23:23:37.982Z,12.72
2019-05-23T23:26:06.619Z,12.73
2019-05-23T23:28:35.914Z,12.71
2019-05-23T23:31:04.578Z,12.65
2019-05-23T23:33:33.542Z,12.63
2019-05-23T23:36:03.154Z,12.58
2019-05-23T23:38:31.801Z,12.56
2019-05-23T23:41:01.351Z,12.51
2019-05-23T23:43:30.376Z,12.48
2019-05-23T23:46:16.849Z,12.50
2019-05-23T23:49:03.689Z,12.48
2019-05-23T23:51:50.470Z,12.53
2019-05-23T23:54:37.793Z,12.44
2019-05-23T23:57:24.603Z,12.40
2019-05-23T23:59:52.781Z,12.38
